createdAt,value
2023-01-13T00:01:27.110Z,100005.09
2023-01-13T00:03:54.130Z,100014.75
2023-01-13T00:06:25.769Z,100012.59
2023-01-13T00:08:54.167Z,100008.34
2023-01-13T00:11:22.167Z,100007.81
2023-01-13T00:13:49.327Z,100019.88
2023-01-13T00:16:18.358Z,100002.75
2023-01-13T00:18:47.324Z,100031.94
2023-01-13T00:21:17.881Z,100021.25
2023-01-13T00:23:45.877Z,100009.69
2023-01-13T00:26:22.768Z,100020.44
2023-01-13T00:28:50.627Z,100014.56
2023-01-13T00:31:21.053Z,99995.00
2023-01-13T00:33:51.873Z,100009.72
2023-01-13T00:36:20.755Z,100003.34
2023-01-13T00:38:48.458Z,100021.56
2023-01-13T00:41:19.248Z,99996.13
2023-01-13T00:43:47.904Z,99990.78
2023-01-13T00:46:18.264Z,99995.88
2023-01-13T00:48:46.039Z,100001.78
2023-01-13T00:51:19.276Z,99987.84
2023-01-13T00:53:50.821Z,99994.53
2023-01-13T00:56:38.407Z,99988.94
2023-01-13T00:59:08.442Z,100003.97
2023-01-13T01:01:35.582Z,99988.16
2023-01-13T01:04:02.684Z,99986.81
2023-01-13T01:06:30.019Z,99997.53
2023-01-13T01:08:57.654Z,100004.50
2023-01-13T01:11:29.212Z,100003.16
2023-01-13T01:13:59.103Z,100018.97
2023-01-13T01:16:28.869Z,100009.06
2023-01-13T01:18:56.818Z,100015.78
2023-01-13T01:21:26.838Z,100030.84
2023-01-13T01:23:54.653Z,100006.47
2023-01-13T01:26:24.543Z,100007.84
2023-01-13T01:28:52.081Z,99996.56
2023-01-13T01:31:32.318Z,100004.09
2023-01-13T01:34:00.969Z,100008.38
2023-01-13T01:36:30.421Z,99989.06
2023-01-13T01:38:59.413Z,99982.69
2023-01-13T01:41:31.640Z,99992.88
2023-01-13T01:44:28.417Z,100004.72
2023-01-13T01:46:56.606Z,99992.88
2023-01-13T01:49:31.323Z,99992.38
2023-01-13T01:52:04.587Z,99996.69
2023-01-13T01:54:42.851Z,99988.38
2023-01-13T01:57:16.045Z,99986.00
2023-01-13T01:59:44.063Z,99994.56
2023-01-13T02:02:11.822Z,99977.16
2023-01-13T02:04:50.475Z,99975.28
2023-01-13T02:07:21.192Z,99971.81
2023-01-13T02:09:49.696Z,99981.19
2023-01-13T02:12:32.542Z,99983.91
2023-01-13T02:15:12.469Z,99982.81
2023-01-13T02:18:00.885Z,99983.09
2023-01-13T02:20:45.234Z,99985.25
2023-01-13T02:24:17.008Z,99973.72
2023-01-13T02:26:58.888Z,99974.53
2023-01-13T02:30:25.453Z,99973.19
2023-01-13T02:33:25.975Z,99965.94
2023-01-13T02:36:11.367Z,99965.16
2023-01-13T02:38:50.437Z,99953.34
2023-01-13T02:41:56.892Z,99961.91
2023-01-13T02:44:47.073Z,99954.94
2023-01-13T02:47:23.019Z,99950.13
2023-01-13T02:49:56.496Z,99964.34
2023-01-13T02:52:31.617Z,99952.28
2023-01-13T02:55:09.051Z,99953.88
2023-01-13T02:57:38.167Z,99954.97
2023-01-13T03:00:07.714Z,99954.41
2023-01-13T03:02:35.719Z,99945.56
2023-01-13T03:05:02.679Z,99956.56
2023-01-13T03:07:53.617Z,99938.88
2023-01-13T03:10:26.286Z,99959.53
2023-01-13T03:13:08.281Z,99954.69
2023-01-13T03:15:49.479Z,99961.41
2023-01-13T03:18:40.857Z,99955.75
2023-01-13T03:21:21.462Z,99954.41
2023-01-13T03:24:20.859Z,99940.19
2023-01-13T03:27:15.542Z,99932.41
2023-01-13T03:29:56.394Z,99939.38
2023-01-13T03:32:53.049Z,99932.94
2023-01-13T03:35:31.608Z,99947.97
2023-01-13T03:38:06.853Z,99944.22
2023-01-13T03:40:41.971Z,99940.75
2023-01-13T03:43:35.099Z,99943.69
2023-01-13T03:46:14.966Z,99943.69
2023-01-13T03:48:45.867Z,99941.00
2023-01-13T03:51:18.438Z,99946.38
2023-01-13T03:54:05.677Z,99930.81
2023-01-13T03:56:46.248Z,99946.09
2023-01-13T03:59:23.944Z,99941.00
2023-01-13T04:02:07.981Z,99942.59
2023-01-13T04:04:56.961Z,99929.19
2023-01-13T04:07:53.635Z,99923.81
2023-01-13T04:10:35.773Z,99918.97
2023-01-13T04:13:10.958Z,99926.22
2023-01-13T04:15:42.506Z,99931.59
2023-01-13T04:18:28.606Z,99937.75
2023-01-13T04:21:00.693Z,99928.91
2023-01-13T04:23:28.603Z,99923.53
2023-01-13T04:25:56.283Z,99924.34
2023-01-13T04:28:23.900Z,99940.44
2023-01-13T04:30:51.675Z,99924.88
2023-01-13T04:33:19.778Z,99926.22
2023-01-13T04:35:48.467Z,99932.41
2023-01-13T04:38:18.584Z,99935.34
2023-01-13T04:40:46.526Z,99935.88
2023-01-13T04:43:15.487Z,99940.41
2023-01-13T04:45:43.596Z,99941.22
2023-01-13T04:48:10.731Z,99945.22
2023-01-13T04:50:38.064Z,99934.50
2023-01-13T04:53:05.676Z,99938.78
2023-01-13T04:55:33.173Z,99940.41
2023-01-13T04:58:08.092Z,99935.25
2023-01-13T05:00:38.490Z,99966.34
2023-01-13T05:03:05.632Z,99948.38
2023-01-13T05:05:32.653Z,99946.75
2023-01-13T05:07:59.727Z,99951.56
2023-01-13T05:10:27.722Z,99956.41
2023-01-13T05:13:13.008Z,99952.66
2023-01-13T05:16:00.236Z,99959.09
2023-01-13T05:18:29.469Z,99955.34
2023-01-13T05:20:56.659Z,99961.84
2023-01-13T05:23:41.817Z,99972.03
2023-01-13T05:26:08.991Z,99955.69
2023-01-13T05:28:35.887Z,99960.78
2023-01-13T05:31:03.093Z,99960.50
2023-01-13T05:33:29.952Z,99948.69
2023-01-13T05:35:57.191Z,99958.63
2023-01-13T05:38:24.209Z,99955.41
2023-01-13T05:41:09.447Z,99946.50
2023-01-13T05:43:36.518Z,99954.06
2023-01-13T05:46:04.893Z,99960.50
2023-01-13T05:48:36.065Z,99954.06
2023-01-13T05:51:06.725Z,99953.25
2023-01-13T05:53:34.404Z,99951.13
2023-01-13T05:56:05.365Z,99964.25
2023-01-13T05:58:32.378Z,99962.34
2023-01-13T06:01:02.270Z,99958.28
2023-01-13T06:03:29.263Z,99975.50
2023-01-13T06:05:59.346Z,99980.59
2023-01-13T06:08:26.883Z,99984.88
2023-01-13T06:10:54.156Z,99979.53
2023-01-13T06:13:21.160Z,99968.81
2023-01-13T06:15:48.239Z,99973.63
2023-01-13T06:18:15.269Z,99977.94
2023-01-13T06:20:42.637Z,99980.91
2023-01-13T06:23:11.381Z,99980.63
2023-01-13T06:26:02.671Z,99980.66
2023-01-13T06:28:29.588Z,99995.41
2023-01-13T06:31:01.053Z,100005.88
2023-01-13T06:33:34.736Z,100006.41
2023-01-13T06:36:08.318Z,99998.91
2023-01-13T06:38:38.227Z,100004.81
2023-01-13T06:41:07.726Z,100009.13
2023-01-13T06:43:34.981Z,99994.66
2023-01-13T06:46:02.858Z,99987.41
2023-01-13T06:48:35.371Z,100008.09
2023-01-13T06:51:04.231Z,99993.88
2023-01-13T06:53:31.701Z,99997.13
2023-01-13T06:55:58.755Z,99980.22
2023-01-13T06:58:25.646Z,99953.94
2023-01-13T07:00:53.485Z,99948.84
2023-01-13T07:03:20.948Z,99975.94
2023-01-13T07:05:55.928Z,99995.78
2023-01-13T07:08:24.440Z,99984.50
2023-01-13T07:10:52.764Z,99980.75
2023-01-13T07:13:38.604Z,99995.50
2023-01-13T07:16:08.629Z,99981.81
2023-01-13T07:18:36.369Z,99986.91
2023-01-13T07:21:09.323Z,99992.28
2023-01-13T07:23:41.552Z,99990.69
2023-01-13T07:26:09.854Z,99973.50
2023-01-13T07:28:37.358Z,99961.97
2023-01-13T07:31:05.955Z,99965.47
2023-01-13T07:33:33.484Z,99973.53
2023-01-13T07:36:03.896Z,99976.47
2023-01-13T07:38:33.659Z,99988.81
2023-01-13T07:41:24.109Z,99956.38
2023-01-13T07:43:52.132Z,99977.53
2023-01-13T07:46:19.421Z,99977.81
2023-01-13T07:48:49.145Z,99973.00
2023-01-13T07:51:16.352Z,99979.16
2023-01-13T07:53:43.377Z,99975.41
2023-01-13T07:56:10.560Z,99996.31
2023-01-13T07:58:38.076Z,100006.50
2023-01-13T08:01:13.201Z,100003.84
2023-01-13T08:03:40.925Z,100000.06
2023-01-13T08:06:09.696Z,100008.66
2023-01-13T08:08:37.410Z,100000.88
2023-01-13T08:11:07.255Z,100010.25
2023-01-13T08:13:34.961Z,100022.31
2023-01-13T08:16:12.577Z,100033.84
2023-01-13T08:18:40.453Z,100029.56
2023-01-13T08:21:13.422Z,100021.50
2023-01-13T08:23:42.555Z,100032.78
2023-01-13T08:26:13.253Z,100031.69
2023-01-13T08:28:40.775Z,100034.41
2023-01-13T08:31:15.921Z,100048.34
2023-01-13T08:33:43.142Z,100051.53
2023-01-13T08:36:12.640Z,100059.84
2023-01-13T08:38:40.916Z,100048.28
2023-01-13T08:41:36.849Z,100050.44
2023-01-13T08:44:05.443Z,100042.88
2023-01-13T08:46:32.389Z,100042.09
2023-01-13T08:48:59.617Z,100022.50
2023-01-13T08:51:26.628Z,100030.00
2023-01-13T08:53:53.705Z,100022.75
2023-01-13T08:56:20.627Z,100036.97
2023-01-13T08:58:47.673Z,100071.00
2023-01-13T09:01:20.638Z,100076.38
2023-01-13T09:03:47.732Z,100073.94
2023-01-13T09:06:14.633Z,100065.09
2023-01-13T09:08:41.818Z,100073.91
2023-01-13T09:11:37.388Z,100087.34
2023-01-13T09:14:04.931Z,100054.09
2023-01-13T09:16:31.931Z,100023.00
2023-01-13T09:18:59.162Z,99963.22
2023-01-13T09:21:26.707Z,99903.19
2023-01-13T09:23:54.030Z,99974.50
2023-01-13T09:26:21.747Z,99984.69
2023-01-13T09:28:48.859Z,99991.91
2023-01-13T09:31:15.862Z,100054.13
2023-01-13T09:34:01.259Z,100063.22
2023-01-13T09:36:28.191Z,100053.31
2023-01-13T09:38:55.262Z,100041.75
2023-01-13T09:41:45.357Z,100049.81
2023-01-13T09:44:26.166Z,100026.25
2023-01-13T09:47:00.872Z,100008.81
2023-01-13T09:49:40.603Z,100019.84
2023-01-13T09:52:19.202Z,100020.91
2023-01-13T09:54:54.489Z,100026.25
2023-01-13T09:57:21.822Z,100035.63
2023-01-13T09:59:49.216Z,100034.31
2023-01-13T10:02:40.907Z,100041.81
2023-01-13T10:05:45.079Z,100034.84
2023-01-13T10:08:19.654Z,100047.41
2023-01-13T10:10:55.831Z,100049.78
2023-01-13T10:13:33.015Z,100050.31
2023-01-13T10:16:23.947Z,100051.91
2023-01-13T10:19:05.816Z,100043.03
2023-01-13T10:22:09.622Z,100059.63
2023-01-13T10:25:27.732Z,100051.13
2023-01-13T10:27:59.229Z,100053.09
2023-01-13T10:30:36.570Z,100059.06
2023-01-13T10:33:14.292Z,100063.13
2023-01-13T10:35:59.551Z,100059.69
2023-01-13T10:38:35.313Z,100050.56
2023-01-13T10:41:20.745Z,100053.78
2023-01-13T10:44:09.886Z,100060.19
2023-01-13T10:46:59.947Z,100052.38
2023-01-13T10:49:36.493Z,100047.25
2023-01-13T10:52:05.465Z,100040.28
2023-01-13T10:54:32.838Z,100048.03
2023-01-13T10:57:25.130Z,100044.31
2023-01-13T10:59:53.011Z,100041.91
2023-01-13T11:02:28.235Z,100047.00
2023-01-13T11:05:24.740Z,100040.84
2023-01-13T11:07:55.086Z,100047.84
2023-01-13T11:10:32.409Z,100048.13
2023-01-13T11:13:34.441Z,100059.16
2023-01-13T11:16:13.395Z,100057.31
2023-01-13T11:19:12.213Z,100053.81
2023-01-13T11:22:08.905Z,100046.28
2023-01-13T11:24:54.912Z,100053.81
2023-01-13T11:27:44.208Z,100052.53
2023-01-13T11:30:31.651Z,100046.41
2023-01-13T11:33:10.682Z,100045.06
2023-01-13T11:36:13.991Z,100045.72
2023-01-13T11:38:46.054Z,100047.78
2023-01-13T11:41:31.738Z,100045.94
2023-01-13T11:44:10.688Z,100036.59
2023-01-13T11:46:38.126Z,100039.53
2023-01-13T11:49:05.303Z,100042.66
2023-01-13T11:51:45.265Z,100058.34
2023-01-13T11:54:46.651Z,100031.25
2023-01-13T11:57:37.489Z,100029.97
2023-01-13T12:00:28.181Z,100040.56
2023-01-13T12:03:17.467Z,100027.75
2023-01-13T12:06:02.958Z,100040.75
2023-01-13T12:08:57.933Z,100034.97
2023-01-13T12:12:04.348Z,100034.97
2023-01-13T12:14:57.523Z,100055.47
2023-01-13T12:17:59.853Z,100023.16
2023-01-13T12:21:02.031Z,100052.19
2023-01-13T12:23:47.326Z,100043.94
2023-01-13T12:26:16.957Z,100040.16
2023-01-13T12:29:01.689Z,100068.97
2023-01-13T12:31:30.198Z,100036.44
2023-01-13T12:34:25.739Z,100034.97
2023-01-13T12:37:01.738Z,100053.63
2023-01-13T12:39:47.875Z,100044.72
2023-01-13T12:42:46.137Z,100029.59
2023-01-13T12:45:13.028Z,100041.41
2023-01-13T12:47:46.378Z,100040.75
2023-01-13T12:50:22.628Z,100050.06
2023-01-13T12:53:01.734Z,100057.25
2023-01-13T12:55:35.144Z,100058.34
2023-01-13T12:58:11.090Z,100061.41
2023-01-13T13:00:59.244Z,100056.72
2023-01-13T13:03:35.225Z,100078.97
2023-01-13T13:06:16.540Z,100060.94
2023-01-13T13:08:46.167Z,100050.91
2023-01-13T13:11:32.489Z,100058.31
2023-01-13T13:14:12.297Z,100041.59
2023-01-13T13:16:51.686Z,100052.16
2023-01-13T13:19:20.670Z,100053.81
2023-01-13T13:22:12.991Z,100070.56
2023-01-13T13:25:04.102Z,100065.78
2023-01-13T13:27:44.162Z,100054.22
2023-01-13T13:30:36.883Z,100061.06
2023-01-13T13:33:35.281Z,100061.09
2023-01-13T13:36:50.512Z,100078.31
2023-01-13T13:39:42.668Z,100077.66
2023-01-13T13:42:55.566Z,100069.31
2023-01-13T13:45:43.920Z,100069.72
2023-01-13T13:48:30.666Z,100083.06
2023-01-13T13:51:03.630Z,100077.78
2023-01-13T13:53:40.652Z,100082.94
2023-01-13T13:56:20.379Z,100077.59
2023-01-13T13:58:48.825Z,100098.91
2023-01-13T14:01:31.050Z,100086.00
2023-01-13T14:04:18.404Z,100088.69
2023-01-13T14:07:02.174Z,100080.91
2023-01-13T14:09:40.572Z,100078.00
2023-01-13T14:12:22.703Z,100079.34
2023-01-13T14:14:50.947Z,100080.97
2023-01-13T14:17:26.508Z,100086.38
2023-01-13T14:20:10.326Z,100091.25
2023-01-13T14:22:37.760Z,100107.94
2023-01-13T14:25:29.953Z,100105.53
2023-01-13T14:28:00.688Z,100102.84
2023-01-13T14:30:28.644Z,100098.25
2023-01-13T14:32:56.467Z,100101.72
2023-01-13T14:35:24.072Z,100111.66
2023-01-13T14:37:54.292Z,100107.06
2023-01-13T14:40:33.693Z,100098.19
2023-01-13T14:43:03.248Z,100103.53
2023-01-13T14:45:33.148Z,100112.13
2023-01-13T14:48:01.534Z,100105.13
2023-01-13T14:50:34.032Z,100113.97
2023-01-13T14:53:01.961Z,100102.16
2023-01-13T14:55:40.205Z,100115.56
2023-01-13T14:58:22.617Z,100116.91
2023-01-13T15:00:52.081Z,100110.19
2023-01-13T15:03:22.411Z,100103.72
2023-01-13T15:05:52.263Z,100113.91
2023-01-13T15:08:34.795Z,100110.16
2023-01-13T15:11:28.764Z,100118.41
2023-01-13T15:14:01.445Z,100113.00
2023-01-13T15:16:33.339Z,100111.66
2023-01-13T15:19:01.770Z,100100.06
2023-01-13T15:21:28.718Z,100116.94
2023-01-13T15:23:56.041Z,100105.38
2023-01-13T15:26:29.980Z,100110.47
2023-01-13T15:28:59.187Z,100123.84
2023-01-13T15:31:27.952Z,100130.75
2023-01-13T15:33:55.482Z,100118.09
2023-01-13T15:36:31.783Z,100132.56
2023-01-13T15:39:00.675Z,100155.28
2023-01-13T15:41:47.211Z,100155.78
2023-01-13T15:44:34.499Z,100137.47
2023-01-13T15:47:08.433Z,100141.66
2023-01-13T15:49:45.434Z,100160.63
2023-01-13T15:52:27.182Z,100154.72
2023-01-13T15:54:54.898Z,100166.19
2023-01-13T15:57:28.782Z,100159.47
2023-01-13T15:59:58.738Z,100152.53
2023-01-13T16:02:26.188Z,100149.00
2023-01-13T16:04:54.399Z,100167.19
2023-01-13T16:07:24.281Z,100159.69
2023-01-13T16:09:52.173Z,100176.28
2023-01-13T16:12:19.402Z,100163.97
2023-01-13T16:14:46.356Z,100159.69
2023-01-13T16:17:20.655Z,100167.16
2023-01-13T16:19:48.050Z,100174.94
2023-01-13T16:22:16.563Z,100178.97
2023-01-13T16:24:44.767Z,100178.41
2023-01-13T16:27:21.326Z,100179.47
2023-01-13T16:29:48.742Z,100179.69
2023-01-13T16:32:15.948Z,100183.94
2023-01-13T16:34:43.559Z,100191.91
2023-01-13T16:37:27.426Z,100226.72
2023-01-13T16:39:55.151Z,100190.69
2023-01-13T16:42:22.629Z,100199.72
2023-01-13T16:44:50.801Z,100205.09
2023-01-13T16:47:18.758Z,100207.97
2023-01-13T16:49:46.394Z,100223.47
2023-01-13T16:52:13.375Z,100220.97
2023-01-13T16:54:40.465Z,100223.16
2023-01-13T16:57:12.757Z,100232.47
2023-01-13T16:59:39.750Z,100228.66
2023-01-13T17:02:14.046Z,100223.25
2023-01-13T17:04:41.038Z,100224.25
2023-01-13T17:07:10.040Z,100239.66
2023-01-13T17:09:37.073Z,100227.53
2023-01-13T17:12:04.190Z,100237.91
2023-01-13T17:14:31.130Z,100249.09
2023-01-13T17:16:58.100Z,100254.94
2023-01-13T17:19:25.911Z,100238.56
2023-01-13T17:21:53.332Z,100266.09
2023-01-13T17:24:20.952Z,100270.63
2023-01-13T17:26:50.357Z,100256.22
2023-01-13T17:29:23.411Z,100269.69
2023-01-13T17:31:51.607Z,100262.06
2023-01-13T17:34:19.983Z,100278.59
2023-01-13T17:36:47.548Z,100281.03
2023-01-13T17:39:24.208Z,100288.66
2023-01-13T17:41:53.406Z,100296.69
2023-01-13T17:44:23.377Z,100292.22
2023-01-13T17:46:51.069Z,100302.81
2023-01-13T17:49:22.112Z,100287.13
2023-01-13T17:51:51.295Z,100284.94
2023-01-13T17:54:19.403Z,100297.81
2023-01-13T17:56:46.780Z,100288.72
2023-01-13T17:59:16.440Z,100296.75
2023-01-13T18:01:44.005Z,100291.41
2023-01-13T18:04:24.092Z,100281.53
2023-01-13T18:06:51.760Z,100285.31
2023-01-13T18:09:18.644Z,100288.56
2023-01-13T18:11:47.327Z,100282.00
2023-01-13T18:14:15.415Z,100296.91
2023-01-13T18:16:43.289Z,100305.50
2023-01-13T18:19:29.534Z,100324.59
2023-01-13T18:22:14.918Z,100305.31
2023-01-13T18:25:00.394Z,100311.47
2023-01-13T18:27:35.997Z,100306.47
2023-01-13T18:30:04.792Z,100316.09
2023-01-13T18:32:33.598Z,100309.00
2023-01-13T18:35:06.761Z,100325.03
2023-01-13T18:37:36.071Z,100306.06
2023-01-13T18:40:05.045Z,100304.22
2023-01-13T18:42:50.164Z,100321.63
2023-01-13T18:45:44.837Z,100333.94
2023-01-13T18:48:12.086Z,100344.31
2023-01-13T18:50:38.968Z,100332.56
2023-01-13T18:53:05.953Z,100317.56
2023-01-13T18:55:33.012Z,100323.72
2023-01-13T18:58:00.515Z,100333.31
2023-01-13T19:00:27.583Z,100325.84
2023-01-13T19:05:34.768Z,100339.63
2023-01-13T19:08:02.129Z,100338.25
2023-01-13T19:10:32.115Z,100346.00
2023-01-13T19:12:59.125Z,100351.03
2023-01-13T19:15:26.123Z,100349.75
2023-01-13T19:17:52.975Z,100353.56
2023-01-13T19:20:20.310Z,100364.81
2023-01-13T19:22:53.782Z,100347.63
2023-01-13T19:25:20.997Z,100360.28
2023-01-13T19:27:47.892Z,100375.03
2023-01-13T19:30:15.033Z,100367.56
2023-01-13T19:32:41.931Z,100381.66
2023-01-13T19:35:09.335Z,100369.44
2023-01-13T19:37:36.908Z,100379.56
2023-01-13T19:40:09.230Z,100376.09
2023-01-13T19:42:54.955Z,100385.16
2023-01-13T19:45:27.659Z,100363.59
2023-01-13T19:47:56.972Z,100385.56
2023-01-13T19:50:25.297Z,100385.06
2023-01-13T19:52:52.327Z,100382.88
2023-01-13T19:55:20.110Z,100376.88
2023-01-13T19:57:47.203Z,100390.81
2023-01-13T20:00:20.397Z,100396.75
2023-01-13T20:02:49.726Z,100413.53
2023-01-13T20:05:21.760Z,100406.56
2023-01-13T20:07:50.783Z,100401.69
2023-01-13T20:10:20.226Z,100414.81
2023-01-13T20:12:47.668Z,100409.72
2023-01-13T20:15:14.922Z,100429.50
2023-01-13T20:17:41.961Z,100416.94
2023-01-13T20:20:10.934Z,100434.84
2023-01-13T20:22:39.476Z,100437.28
2023-01-13T20:25:07.928Z,100426.50
2023-01-13T20:27:35.455Z,100438.34
2023-01-13T20:30:02.729Z,100450.50
2023-01-13T20:32:29.824Z,100439.72
2023-01-13T20:34:56.764Z,100442.38
2023-01-13T20:37:23.742Z,100444.34
2023-01-13T20:39:50.870Z,100465.50
2023-01-13T20:42:29.551Z,100444.41
2023-01-13T20:44:59.852Z,100456.41
2023-01-13T20:47:28.387Z,100452.19
2023-01-13T20:49:55.691Z,100459.09
2023-01-13T20:52:23.075Z,100446.75
2023-01-13T20:54:50.190Z,100444.09
2023-01-13T20:57:17.313Z,100444.97
2023-01-13T20:59:46.289Z,100458.34
2023-01-13T21:02:16.463Z,100459.97
2023-01-13T21:04:44.023Z,100461.28
2023-01-13T21:07:11.777Z,100446.75
2023-01-13T21:09:38.710Z,100454.78
2023-01-13T21:12:25.601Z,100461.84
2023-01-13T21:15:11.869Z,100456.09
2023-01-13T21:17:58.564Z,100477.25
2023-01-13T21:20:26.791Z,100458.19
2023-01-13T21:22:53.774Z,100467.19
2023-01-13T21:25:21.003Z,100472.53
2023-01-13T21:27:48.050Z,100466.38
2023-01-13T21:30:17.027Z,100465.25
2023-01-13T21:32:45.183Z,100462.81
2023-01-13T21:35:13.836Z,100483.97
2023-01-13T21:37:42.946Z,100474.25
2023-01-13T21:40:13.900Z,100501.06
2023-01-13T21:43:00.009Z,100499.59
2023-01-13T21:45:45.568Z,100472.94
2023-01-13T21:48:12.907Z,100491.09
2023-01-13T21:50:39.834Z,100500.16
2023-01-13T21:53:08.237Z,100500.97
2023-01-13T21:55:36.795Z,100501.41
2023-01-13T21:58:11.631Z,100510.94
2023-01-13T22:00:41.590Z,100499.31
2023-01-13T22:03:10.761Z,100499.78
2023-01-13T22:05:38.255Z,100506.44
2023-01-13T22:08:07.102Z,100500.59
2023-01-13T22:10:34.835Z,100515.84
2023-01-13T22:13:23.090Z,100515.84
2023-01-13T22:15:50.199Z,100523.88
2023-01-13T22:18:18.445Z,100522.47
2023-01-13T22:20:46.107Z,100513.66
2023-01-13T22:23:13.548Z,100522.47
2023-01-13T22:25:40.789Z,100542.50
2023-01-13T22:28:09.116Z,100533.91
2023-01-13T22:30:36.327Z,100521.66
2023-01-13T22:33:03.477Z,100529.34
2023-01-13T22:35:30.840Z,100537.94
2023-01-13T22:37:58.640Z,100537.38
2023-01-13T22:40:26.504Z,100546.22
2023-01-13T22:42:53.407Z,100539.38
2023-01-13T22:45:21.015Z,100547.75
2023-01-13T22:47:50.012Z,100553.09
2023-01-13T22:50:20.954Z,100549.41
2023-01-13T22:52:48.701Z,100548.03
2023-01-13T22:55:16.705Z,100554.91
2023-01-13T22:57:48.218Z,100562.34
2023-01-13T23:00:18.849Z,100572.22
2023-01-13T23:02:46.873Z,100594.31
2023-01-13T23:05:13.909Z,100576.41
2023-01-13T23:07:41.278Z,100578.84
2023-01-13T23:10:08.955Z,100572.25
2023-01-13T23:12:36.009Z,100570.63
2023-01-13T23:15:04.103Z,100605.59
2023-01-13T23:17:31.331Z,100581.78
2023-01-13T23:19:58.222Z,100588.84
2023-01-13T23:22:25.798Z,100576.56
2023-01-13T23:24:53.186Z,100580.97
2023-01-13T23:27:21.969Z,100573.22
2023-01-13T23:29:49.331Z,100584.69
2023-01-13T23:32:16.344Z,100597.94
2023-01-13T23:34:43.232Z,100597.34
2023-01-13T23:37:10.575Z,100588.06
2023-01-13T23:39:37.461Z,100590.50
2023-01-13T23:42:04.442Z,100580.63
2023-01-13T23:44:31.323Z,100579.25
2023-01-13T23:46:58.563Z,100584.94
2023-01-13T23:49:25.448Z,100592.50
2023-01-13T23:51:53.132Z,100604.34
2023-01-13T23:54:20.214Z,100595.75
2023-01-13T23:56:50.318Z,100608.28
2023-01-13T23:59:17.512Z,100615.47
